Gage Information Page
Francis E. Walter Reservoir, PA

Provisional Data Subject to Revision
Francis E. Walter Reservoir, PA
Amber Threshold Elevation:1392 feet
Red Threshold Elevation:1441 feet
Date (ET) Elevation (ft) Storage (ac-ft) Inflow (cfs) Outflow (cfs)
Jul 2, 2016 12:15 am 1366.27 18845 241 226
Jul 1, 2016 11:15 pm 1366.25 18835 218 226
Jul 1, 2016 10:15 pm 1366.25 18835 211 226
Jul 1, 2016   9:15 pm 1366.24 18830 181 226
Jul 1, 2016   8:15 pm 1366.24 18830 173 226
Jul 1, 2016   7:15 pm 1366.24 18830 158 226
Jul 1, 2016   6:15 pm 1366.23 18825 133 226
Jul 1, 2016   5:15 pm 1366.25 18835 138 226
Jul 1, 2016   4:15 pm 1366.25 18835 121 226
Jul 1, 2016   3:15 pm 1366.26 18840 118 226
Jul 1, 2016   2:15 pm 1366.27 18845 115 226
Jul 1, 2016   1:15 pm 1366.30 18860 118 226
Jul 1, 2016 12:15 pm 1366.31 18865 114 226
Jul 1, 2016 11:15 am 1366.33 18875 119 208
Jul 1, 2016 10:15 am 1366.35 18885 124 208
Jul 1, 2016   9:15 am 1366.36 18890 123 208
Jul 1, 2016   8:15 am 1366.38 18900 129 208
Jul 1, 2016   7:15 am 1366.39 18905 127 195
Jul 1, 2016   6:15 am 1366.40 18910 127 195
Jul 1, 2016   5:15 am 1366.42 18920 135 195
Jul 1, 2016   4:15 am 1366.43 18925 135 195
Jul 1, 2016   3:15 am 1366.44 18929 142 195
Jul 1, 2016   2:15 am 1366.45 18934 135 195
Report Generated Jul 02, 2016 02:27 AM

NWS Web Info
USGS Web Info